sensor_id;sensor_type;location;lat;lon;timestamp;P1;durP1;ratioP1;P2;durP2;ratioP2
65071;SDS011;51663;52.310;17.016;2024-03-06T00:00:21;449.00;;;151.90;;
65071;SDS011;51663;52.310;17.016;2024-03-06T00:03:44;277.10;;;95.90;;
65071;SDS011;51663;52.310;17.016;2024-03-06T00:06:49;433.57;;;145.73;;
65071;SDS011;51663;52.310;17.016;2024-03-06T00:09:55;315.43;;;110.13;;
65071;SDS011;51663;52.310;17.016;2024-03-06T00:12:58;265.80;;;93.67;;
65071;SDS011;51663;52.310;17.016;2024-03-06T00:16:00;247.93;;;84.33;;
65071;SDS011;51663;52.310;17.016;2024-03-06T00:19:03;281.00;;;101.50;;
65071;SDS011;51663;52.310;17.016;2024-03-06T00:22:06;223.00;;;83.63;;
65071;SDS011;51663;52.310;17.016;2024-03-06T00:25:08;169.80;;;64.03;;
65071;SDS011;51663;52.310;17.016;2024-03-06T00:28:11;88.17;;;35.60;;
65071;SDS011;51663;52.310;17.016;2024-03-06T00:31:13;77.00;;;33.57;;
65071;SDS011;51663;52.310;17.016;2024-03-06T00:34:15;65.37;;;29.30;;
65071;SDS011;51663;52.310;17.016;2024-03-06T00:37:17;61.70;;;30.50;;
65071;SDS011;51663;52.310;17.016;2024-03-06T00:40:20;70.87;;;31.67;;
65071;SDS011;51663;52.310;17.016;2024-03-06T00:43:22;78.27;;;34.37;;
65071;SDS011;51663;52.310;17.016;2024-03-06T00:46:25;59.63;;;29.23;;
65071;SDS011;51663;52.310;17.016;2024-03-06T00:49:27;62.67;;;29.67;;
65071;SDS011;51663;52.310;17.016;2024-03-06T00:52:30;72.50;;;30.80;;
65071;SDS011;51663;52.310;17.016;2024-03-06T00:55:32;70.30;;;30.03;;
65071;SDS011;51663;52.310;17.016;2024-03-06T00:58:35;76.67;;;32.60;;
65071;SDS011;51663;52.310;17.016;2024-03-06T01:01:37;61.40;;;28.63;;
65071;SDS011;51663;52.310;17.016;2024-03-06T01:04:40;59.97;;;26.97;;
65071;SDS011;51663;52.310;17.016;2024-03-06T01:07:42;58.13;;;28.00;;
65071;SDS011;51663;52.310;17.016;2024-03-06T01:10:45;57.53;;;27.80;;
65071;SDS011;51663;52.310;17.016;2024-03-06T01:13:48;57.43;;;29.23;;
65071;SDS011;51663;52.310;17.016;2024-03-06T01:16:51;62.73;;;30.10;;
65071;SDS011;51663;52.310;17.016;2024-03-06T01:19:53;55.07;;;27.87;;
65071;SDS011;51663;52.310;17.016;2024-03-06T01:22:56;58.87;;;28.40;;
65071;SDS011;51663;52.310;17.016;2024-03-06T01:25:58;48.47;;;24.43;;
65071;SDS011;51663;52.310;17.016;2024-03-06T01:29:01;55.60;;;26.27;;
65071;SDS011;51663;52.310;17.016;2024-03-06T01:32:03;50.63;;;25.47;;
65071;SDS011;51663;52.310;17.016;2024-03-06T01:35:07;46.93;;;23.27;;
65071;SDS011;51663;52.310;17.016;2024-03-06T01:38:10;41.63;;;22.30;;
65071;SDS011;51663;52.310;17.016;2024-03-06T01:41:14;37.80;;;21.30;;
65071;SDS011;51663;52.310;17.016;2024-03-06T01:44:17;34.47;;;19.13;;
65071;SDS011;51663;52.310;17.016;2024-03-06T01:47:20;25.83;;;16.17;;
65071;SDS011;51663;52.310;17.016;2024-03-06T01:50:22;33.33;;;17.47;;
65071;SDS011;51663;52.310;17.016;2024-03-06T01:53:27;30.37;;;17.47;;
65071;SDS011;51663;52.310;17.016;2024-03-06T01:56:35;36.53;;;20.23;;
65071;SDS011;51663;52.310;17.016;2024-03-06T01:59:40;37.13;;;21.33;;
65071;SDS011;51663;52.310;17.016;2024-03-06T02:02:43;33.93;;;20.33;;
65071;SDS011;51663;52.310;17.016;2024-03-06T02:05:46;37.63;;;21.60;;
65071;SDS011;51663;52.310;17.016;2024-03-06T02:08:51;37.87;;;21.53;;
65071;SDS011;51663;52.310;17.016;2024-03-06T02:11:53;43.23;;;23.93;;
65071;SDS011;51663;52.310;17.016;2024-03-06T02:14:55;48.87;;;28.33;;
65071;SDS011;51663;52.310;17.016;2024-03-06T02:17:58;47.93;;;28.03;;
65071;SDS011;51663;52.310;17.016;2024-03-06T02:21:00;43.70;;;26.83;;
65071;SDS011;51663;52.310;17.016;2024-03-06T02:24:02;47.13;;;27.47;;
65071;SDS011;51663;52.310;17.016;2024-03-06T02:27:05;48.40;;;24.27;;
65071;SDS011;51663;52.310;17.016;2024-03-06T02:30:07;35.10;;;20.90;;
65071;SDS011;51663;52.310;17.016;2024-03-06T02:33:10;34.73;;;20.93;;
65071;SDS011;51663;52.310;17.016;2024-03-06T02:36:13;36.63;;;20.53;;
65071;SDS011;51663;52.310;17.016;2024-03-06T02:39:15;33.37;;;20.77;;
65071;SDS011;51663;52.310;17.016;2024-03-06T02:42:18;36.47;;;21.47;;
65071;SDS011;51663;52.310;17.016;2024-03-06T02:45:20;36.17;;;21.83;;
65071;SDS011;51663;52.310;17.016;2024-03-06T02:48:22;38.37;;;21.43;;
65071;SDS011;51663;52.310;17.016;2024-03-06T02:51:24;43.40;;;23.07;;
65071;SDS011;51663;52.310;17.016;2024-03-06T02:54:27;42.53;;;22.97;;
65071;SDS011;51663;52.310;17.016;2024-03-06T02:57:29;46.87;;;25.53;;
65071;SDS011;51663;52.310;17.016;2024-03-06T03:00:32;49.80;;;25.10;;
65071;SDS011;51663;52.310;17.016;2024-03-06T03:03:34;37.50;;;21.37;;
65071;SDS011;51663;52.310;17.016;2024-03-06T03:06:38;35.63;;;21.53;;
65071;SDS011;51663;52.310;17.016;2024-03-06T03:09:40;43.33;;;22.73;;
65071;SDS011;51663;52.310;17.016;2024-03-06T03:12:43;37.40;;;21.67;;
65071;SDS011;51663;52.310;17.016;2024-03-06T03:15:45;36.20;;;20.83;;
65071;SDS011;51663;52.310;17.016;2024-03-06T03:18:49;37.43;;;21.27;;
65071;SDS011;51663;52.310;17.016;2024-03-06T03:21:52;39.27;;;21.60;;
65071;SDS011;51663;52.310;17.016;2024-03-06T03:24:54;34.73;;;19.77;;
65071;SDS011;51663;52.310;17.016;2024-03-06T03:27:58;34.30;;;19.63;;
65071;SDS011;51663;52.310;17.016;2024-03-06T03:31:01;30.27;;;18.57;;
65071;SDS011;51663;52.310;17.016;2024-03-06T03:34:04;31.10;;;19.13;;
65071;SDS011;51663;52.310;17.016;2024-03-06T03:37:12;33.50;;;20.43;;
65071;SDS011;51663;52.310;17.016;2024-03-06T03:40:15;32.97;;;19.23;;
65071;SDS011;51663;52.310;17.016;2024-03-06T03:43:18;37.33;;;20.57;;
65071;SDS011;51663;52.310;17.016;2024-03-06T03:46:20;33.87;;;19.60;;
65071;SDS011;51663;52.310;17.016;2024-03-06T03:49:23;33.20;;;19.70;;
65071;SDS011;51663;52.310;17.016;2024-03-06T03:52:25;34.87;;;20.80;;
65071;SDS011;51663;52.310;17.016;2024-03-06T03:55:28;33.93;;;19.80;;
65071;SDS011;51663;52.310;17.016;2024-03-06T03:58:30;32.37;;;20.47;;
65071;SDS011;51663;52.310;17.016;2024-03-06T04:01:33;44.63;;;29.77;;
65071;SDS011;51663;52.310;17.016;2024-03-06T04:04:35;38.87;;;22.97;;
65071;SDS011;51663;52.310;17.016;2024-03-06T04:07:37;38.87;;;22.23;;
65071;SDS011;51663;52.310;17.016;2024-03-06T04:10:41;35.10;;;20.50;;
65071;SDS011;51663;52.310;17.016;2024-03-06T04:13:47;33.27;;;20.23;;
65071;SDS011;51663;52.310;17.016;2024-03-06T04:16:49;34.67;;;19.60;;
65071;SDS011;51663;52.310;17.016;2024-03-06T04:19:53;36.90;;;20.93;;
65071;SDS011;51663;52.310;17.016;2024-03-06T04:22:57;37.37;;;21.13;;
65071;SDS011;51663;52.310;17.016;2024-03-06T04:26:00;45.43;;;22.90;;
65071;SDS011;51663;52.310;17.016;2024-03-06T04:29:02;42.90;;;23.80;;
65071;SDS011;51663;52.310;17.016;2024-03-06T04:32:05;47.00;;;25.27;;
65071;SDS011;51663;52.310;17.016;2024-03-06T04:35:07;48.53;;;25.67;;
65071;SDS011;51663;52.310;17.016;2024-03-06T04:38:14;42.93;;;24.53;;
65071;SDS011;51663;52.310;17.016;2024-03-06T04:41:18;49.43;;;25.63;;
65071;SDS011;51663;52.310;17.016;2024-03-06T04:44:21;52.63;;;26.03;;
65071;SDS011;51663;52.310;17.016;2024-03-06T04:47:24;50.40;;;25.90;;
65071;SDS011;51663;52.310;17.016;2024-03-06T04:50:31;54.43;;;26.83;;
65071;SDS011;51663;52.310;17.016;2024-03-06T04:53:33;52.93;;;25.30;;
65071;SDS011;51663;52.310;17.016;2024-03-06T04:56:35;49.17;;;25.30;;
65071;SDS011;51663;52.310;17.016;2024-03-06T04:59:38;52.47;;;26.27;;
65071;SDS011;51663;52.310;17.016;2024-03-06T05:02:40;52.97;;;27.50;;
65071;SDS011;51663;52.310;17.016;2024-03-06T05:06:03;42.67;;;22.20;;
65071;SDS011;51663;52.310;17.016;2024-03-06T05:09:24;40.13;;;22.53;;
65071;SDS011;51663;52.310;17.016;2024-03-06T05:12:44;40.93;;;20.97;;
65071;SDS011;51663;52.310;17.016;2024-03-06T05:16:04;35.53;;;20.23;;
65071;SDS011;51663;52.310;17.016;2024-03-06T05:19:24;43.10;;;24.27;;
65071;SDS011;51663;52.310;17.016;2024-03-06T05:22:53;44.70;;;23.03;;
65071;SDS011;51663;52.310;17.016;2024-03-06T05:26:13;49.90;;;23.57;;
65071;SDS011;51663;52.310;17.016;2024-03-06T05:29:34;43.87;;;22.97;;
65071;SDS011;51663;52.310;17.016;2024-03-06T05:32:54;49.27;;;22.53;;
65071;SDS011;51663;52.310;17.016;2024-03-06T05:36:15;47.70;;;22.73;;
65071;SDS011;51663;52.310;17.016;2024-03-06T05:39:36;53.27;;;24.07;;
65071;SDS011;51663;52.310;17.016;2024-03-06T05:42:59;43.60;;;23.30;;
65071;SDS011;51663;52.310;17.016;2024-03-06T05:46:18;50.37;;;22.37;;
65071;SDS011;51663;52.310;17.016;2024-03-06T05:49:38;44.73;;;22.60;;
65071;SDS011;51663;52.310;17.016;2024-03-06T05:52:58;45.43;;;22.53;;
65071;SDS011;51663;52.310;17.016;2024-03-06T05:56:17;46.57;;;23.23;;
65071;SDS011;51663;52.310;17.016;2024-03-06T05:59:37;40.47;;;22.40;;
65071;SDS011;51663;52.310;17.016;2024-03-06T06:02:41;46.93;;;23.83;;
65071;SDS011;51663;52.310;17.016;2024-03-06T06:05:44;48.77;;;23.23;;
65071;SDS011;51663;52.310;17.016;2024-03-06T06:08:47;48.83;;;22.70;;
65071;SDS011;51663;52.310;17.016;2024-03-06T06:11:49;44.00;;;21.83;;
65071;SDS011;51663;52.310;17.016;2024-03-06T06:14:53;45.07;;;22.33;;
65071;SDS011;51663;52.310;17.016;2024-03-06T06:17:55;48.57;;;24.00;;
65071;SDS011;51663;52.310;17.016;2024-03-06T06:20:58;50.83;;;22.97;;
65071;SDS011;51663;52.310;17.016;2024-03-06T06:24:00;47.60;;;22.97;;
65071;SDS011;51663;52.310;17.016;2024-03-06T06:27:03;37.70;;;22.63;;
65071;SDS011;51663;52.310;17.016;2024-03-06T06:30:06;43.43;;;22.27;;
65071;SDS011;51663;52.310;17.016;2024-03-06T06:33:15;45.97;;;24.80;;
65071;SDS011;51663;52.310;17.016;2024-03-06T06:36:17;53.10;;;25.67;;
65071;SDS011;51663;52.310;17.016;2024-03-06T06:39:19;45.27;;;24.60;;
65071;SDS011;51663;52.310;17.016;2024-03-06T06:42:22;46.53;;;25.20;;
65071;SDS011;51663;52.310;17.016;2024-03-06T06:45:26;55.07;;;24.80;;
65071;SDS011;51663;52.310;17.016;2024-03-06T06:48:28;45.87;;;25.87;;
65071;SDS011;51663;52.310;17.016;2024-03-06T06:51:31;51.43;;;26.27;;
65071;SDS011;51663;52.310;17.016;2024-03-06T06:54:33;48.37;;;24.37;;
65071;SDS011;51663;52.310;17.016;2024-03-06T06:57:35;56.70;;;28.03;;
65071;SDS011;51663;52.310;17.016;2024-03-06T07:00:37;58.20;;;28.47;;
65071;SDS011;51663;52.310;17.016;2024-03-06T07:03:40;62.90;;;34.87;;
65071;SDS011;51663;52.310;17.016;2024-03-06T07:06:42;71.63;;;37.33;;
65071;SDS011;51663;52.310;17.016;2024-03-06T07:09:45;51.30;;;29.63;;
65071;SDS011;51663;52.310;17.016;2024-03-06T07:12:47;50.40;;;26.67;;
65071;SDS011;51663;52.310;17.016;2024-03-06T07:15:50;48.90;;;27.90;;
65071;SDS011;51663;52.310;17.016;2024-03-06T07:18:52;47.43;;;27.23;;
65071;SDS011;51663;52.310;17.016;2024-03-06T07:21:55;54.20;;;29.70;;
65071;SDS011;51663;52.310;17.016;2024-03-06T07:24:57;49.97;;;28.20;;
65071;SDS011;51663;52.310;17.016;2024-03-06T07:28:00;54.33;;;28.43;;
65071;SDS011;51663;52.310;17.016;2024-03-06T07:31:02;51.70;;;27.93;;
65071;SDS011;51663;52.310;17.016;2024-03-06T07:34:07;50.50;;;27.27;;
65071;SDS011;51663;52.310;17.016;2024-03-06T07:37:10;48.53;;;26.83;;
65071;SDS011;51663;52.310;17.016;2024-03-06T07:40:12;48.00;;;26.93;;
65071;SDS011;51663;52.310;17.016;2024-03-06T07:43:15;50.50;;;25.37;;
65071;SDS011;51663;52.310;17.016;2024-03-06T07:46:17;46.43;;;26.53;;
65071;SDS011;51663;52.310;17.016;2024-03-06T07:49:20;50.33;;;26.67;;
65071;SDS011;51663;52.310;17.016;2024-03-06T07:52:23;41.70;;;26.20;;
65071;SDS011;51663;52.310;17.016;2024-03-06T07:55:26;50.13;;;26.80;;
65071;SDS011;51663;52.310;17.016;2024-03-06T07:58:28;47.37;;;27.77;;
65071;SDS011;51663;52.310;17.016;2024-03-06T08:01:31;48.67;;;29.63;;
65071;SDS011;51663;52.310;17.016;2024-03-06T08:04:34;53.50;;;31.53;;
65071;SDS011;51663;52.310;17.016;2024-03-06T08:07:40;55.37;;;29.53;;
65071;SDS011;51663;52.310;17.016;2024-03-06T08:10:43;59.70;;;30.83;;
65071;SDS011;51663;52.310;17.016;2024-03-06T08:13:48;54.93;;;31.83;;
65071;SDS011;51663;52.310;17.016;2024-03-06T08:16:51;52.07;;;28.10;;
65071;SDS011;51663;52.310;17.016;2024-03-06T08:19:54;49.83;;;29.97;;
65071;SDS011;51663;52.310;17.016;2024-03-06T08:22:56;72.17;;;33.47;;
65071;SDS011;51663;52.310;17.016;2024-03-06T08:25:59;54.87;;;30.13;;
65071;SDS011;51663;52.310;17.016;2024-03-06T08:29:01;53.10;;;29.73;;
65071;SDS011;51663;52.310;17.016;2024-03-06T08:32:04;50.80;;;28.97;;
65071;SDS011;51663;52.310;17.016;2024-03-06T08:35:08;53.47;;;30.53;;
65071;SDS011;51663;52.310;17.016;2024-03-06T08:38:14;46.97;;;28.83;;
65071;SDS011;51663;52.310;17.016;2024-03-06T08:41:19;44.73;;;27.40;;
65071;SDS011;51663;52.310;17.016;2024-03-06T08:44:22;51.50;;;30.40;;
65071;SDS011;51663;52.310;17.016;2024-03-06T08:47:24;50.37;;;30.70;;
65071;SDS011;51663;52.310;17.016;2024-03-06T08:50:26;53.20;;;30.63;;
65071;SDS011;51663;52.310;17.016;2024-03-06T08:53:29;40.33;;;25.67;;
65071;SDS011;51663;52.310;17.016;2024-03-06T08:56:31;48.97;;;28.30;;
65071;SDS011;51663;52.310;17.016;2024-03-06T08:59:36;43.57;;;25.33;;
65071;SDS011;51663;52.310;17.016;2024-03-06T09:02:38;47.23;;;26.33;;
65071;SDS011;51663;52.310;17.016;2024-03-06T09:05:43;37.80;;;24.23;;
65071;SDS011;51663;52.310;17.016;2024-03-06T09:08:45;44.30;;;26.97;;
65071;SDS011;51663;52.310;17.016;2024-03-06T09:11:50;39.93;;;23.53;;
65071;SDS011;51663;52.310;17.016;2024-03-06T09:14:53;39.57;;;24.10;;
65071;SDS011;51663;52.310;17.016;2024-03-06T09:17:55;39.83;;;23.83;;
65071;SDS011;51663;52.310;17.016;2024-03-06T09:20:58;41.83;;;23.50;;
65071;SDS011;51663;52.310;17.016;2024-03-06T09:24:00;40.60;;;24.43;;
65071;SDS011;51663;52.310;17.016;2024-03-06T09:27:03;39.70;;;23.33;;
65071;SDS011;51663;52.310;17.016;2024-03-06T09:30:06;41.93;;;24.43;;
65071;SDS011;51663;52.310;17.016;2024-03-06T09:33:11;41.93;;;25.23;;
65071;SDS011;51663;52.310;17.016;2024-03-06T09:36:14;43.43;;;24.90;;
65071;SDS011;51663;52.310;17.016;2024-03-06T09:39:17;48.47;;;25.40;;
65071;SDS011;51663;52.310;17.016;2024-03-06T09:42:24;51.27;;;28.30;;
65071;SDS011;51663;52.310;17.016;2024-03-06T09:45:27;46.93;;;25.73;;
65071;SDS011;51663;52.310;17.016;2024-03-06T09:48:29;46.23;;;25.80;;
65071;SDS011;51663;52.310;17.016;2024-03-06T09:51:32;51.83;;;27.60;;
65071;SDS011;51663;52.310;17.016;2024-03-06T09:54:36;49.40;;;27.10;;
65071;SDS011;51663;52.310;17.016;2024-03-06T09:57:42;46.40;;;26.10;;
65071;SDS011;51663;52.310;17.016;2024-03-06T10:00:45;50.20;;;26.47;;
65071;SDS011;51663;52.310;17.016;2024-03-06T10:03:50;53.00;;;26.63;;
65071;SDS011;51663;52.310;17.016;2024-03-06T10:06:53;49.87;;;27.43;;
65071;SDS011;51663;52.310;17.016;2024-03-06T10:09:56;45.70;;;26.53;;
65071;SDS011;51663;52.310;17.016;2024-03-06T10:12:58;52.07;;;27.27;;
65071;SDS011;51663;52.310;17.016;2024-03-06T10:16:03;51.83;;;27.93;;
65071;SDS011;51663;52.310;17.016;2024-03-06T10:19:19;49.40;;;28.70;;
65071;SDS011;51663;52.310;17.016;2024-03-06T10:22:22;49.43;;;26.70;;
65071;SDS011;51663;52.310;17.016;2024-03-06T10:25:27;49.40;;;26.70;;
65071;SDS011;51663;52.310;17.016;2024-03-06T10:28:29;44.80;;;26.73;;
65071;SDS011;51663;52.310;17.016;2024-03-06T10:31:33;51.07;;;29.93;;
65071;SDS011;51663;52.310;17.016;2024-03-06T10:34:36;39.77;;;24.23;;
65071;SDS011;51663;52.310;17.016;2024-03-06T10:37:39;42.33;;;24.53;;
65071;SDS011;51663;52.310;17.016;2024-03-06T10:40:43;40.63;;;23.10;;
65071;SDS011;51663;52.310;17.016;2024-03-06T10:43:46;37.43;;;23.63;;
65071;SDS011;51663;52.310;17.016;2024-03-06T10:46:58;38.00;;;22.77;;
65071;SDS011;51663;52.310;17.016;2024-03-06T10:50:02;39.30;;;23.43;;
65071;SDS011;51663;52.310;17.016;2024-03-06T10:53:09;34.83;;;22.13;;
65071;SDS011;51663;52.310;17.016;2024-03-06T10:56:15;39.83;;;23.67;;
65071;SDS011;51663;52.310;17.016;2024-03-06T10:59:19;38.80;;;23.53;;
65071;SDS011;51663;52.310;17.016;2024-03-06T11:02:22;37.50;;;22.07;;
65071;SDS011;51663;52.310;17.016;2024-03-06T11:05:25;39.90;;;23.67;;
65071;SDS011;51663;52.310;17.016;2024-03-06T11:08:28;42.33;;;23.57;;
65071;SDS011;51663;52.310;17.016;2024-03-06T11:11:31;45.03;;;22.93;;
65071;SDS011;51663;52.310;17.016;2024-03-06T11:14:37;39.17;;;23.60;;
65071;SDS011;51663;52.310;17.016;2024-03-06T11:17:42;47.60;;;27.10;;
65071;SDS011;51663;52.310;17.016;2024-03-06T11:20:45;43.23;;;25.30;;
65071;SDS011;51663;52.310;17.016;2024-03-06T11:27:23;43.90;;;24.63;;
65071;SDS011;51663;52.310;17.016;2024-03-06T11:30:25;41.57;;;23.70;;
65071;SDS011;51663;52.310;17.016;2024-03-06T11:36:43;46.20;;;26.57;;
65071;SDS011;51663;52.310;17.016;2024-03-06T11:39:48;45.30;;;24.33;;
65071;SDS011;51663;52.310;17.016;2024-03-06T11:42:51;42.20;;;23.73;;
65071;SDS011;51663;52.310;17.016;2024-03-06T11:45:54;42.03;;;24.37;;
65071;SDS011;51663;52.310;17.016;2024-03-06T11:52:25;45.97;;;24.00;;
65071;SDS011;51663;52.310;17.016;2024-03-06T11:55:28;42.93;;;24.70;;
65071;SDS011;51663;52.310;17.016;2024-03-06T11:58:32;38.03;;;22.07;;
65071;SDS011;51663;52.310;17.016;2024-03-06T12:01:35;41.70;;;24.37;;
65071;SDS011;51663;52.310;17.016;2024-03-06T12:04:38;46.97;;;25.70;;
65071;SDS011;51663;52.310;17.016;2024-03-06T12:07:46;45.23;;;25.80;;
65071;SDS011;51663;52.310;17.016;2024-03-06T12:10:52;44.40;;;24.80;;
65071;SDS011;51663;52.310;17.016;2024-03-06T12:13:57;39.57;;;24.87;;
65071;SDS011;51663;52.310;17.016;2024-03-06T12:17:00;45.60;;;25.50;;
65071;SDS011;51663;52.310;17.016;2024-03-06T12:20:10;53.87;;;27.83;;
65071;SDS011;51663;52.310;17.016;2024-03-06T12:23:23;56.53;;;29.43;;
65071;SDS011;51663;52.310;17.016;2024-03-06T12:26:28;50.77;;;26.60;;
65071;SDS011;51663;52.310;17.016;2024-03-06T12:29:31;55.67;;;29.60;;
65071;SDS011;51663;52.310;17.016;2024-03-06T12:32:34;48.77;;;26.93;;
65071;SDS011;51663;52.310;17.016;2024-03-06T12:35:37;49.37;;;27.53;;
65071;SDS011;51663;52.310;17.016;2024-03-06T12:38:39;52.47;;;28.47;;
65071;SDS011;51663;52.310;17.016;2024-03-06T12:41:42;56.33;;;31.30;;
65071;SDS011;51663;52.310;17.016;2024-03-06T12:44:44;56.90;;;28.10;;
65071;SDS011;51663;52.310;17.016;2024-03-06T12:47:47;43.00;;;26.63;;
65071;SDS011;51663;52.310;17.016;2024-03-06T12:50:51;61.53;;;31.30;;
65071;SDS011;51663;52.310;17.016;2024-03-06T12:53:53;54.00;;;27.60;;
65071;SDS011;51663;52.310;17.016;2024-03-06T12:56:56;51.80;;;27.90;;
65071;SDS011;51663;52.310;17.016;2024-03-06T12:59:58;53.53;;;28.80;;
65071;SDS011;51663;52.310;17.016;2024-03-06T13:03:02;58.93;;;31.23;;
65071;SDS011;51663;52.310;17.016;2024-03-06T13:06:05;50.40;;;27.93;;
65071;SDS011;51663;52.310;17.016;2024-03-06T13:09:07;47.10;;;25.93;;
65071;SDS011;51663;52.310;17.016;2024-03-06T13:12:11;52.37;;;28.53;;
65071;SDS011;51663;52.310;17.016;2024-03-06T13:15:13;47.40;;;26.33;;
65071;SDS011;51663;52.310;17.016;2024-03-06T13:18:16;59.97;;;32.50;;
65071;SDS011;51663;52.310;17.016;2024-03-06T13:21:19;56.77;;;30.83;;
65071;SDS011;51663;52.310;17.016;2024-03-06T13:24:22;53.60;;;27.67;;
65071;SDS011;51663;52.310;17.016;2024-03-06T13:27:24;57.33;;;31.87;;
65071;SDS011;51663;52.310;17.016;2024-03-06T13:30:26;55.50;;;29.93;;
65071;SDS011;51663;52.310;17.016;2024-03-06T13:33:29;51.20;;;28.70;;
65071;SDS011;51663;52.310;17.016;2024-03-06T13:36:31;65.33;;;38.67;;
65071;SDS011;51663;52.310;17.016;2024-03-06T13:39:34;50.60;;;30.07;;
65071;SDS011;51663;52.310;17.016;2024-03-06T13:42:36;49.93;;;28.47;;
65071;SDS011;51663;52.310;17.016;2024-03-06T13:45:47;59.17;;;28.57;;
65071;SDS011;51663;52.310;17.016;2024-03-06T13:48:51;56.10;;;29.80;;
65071;SDS011;51663;52.310;17.016;2024-03-06T13:51:53;56.50;;;29.83;;
65071;SDS011;51663;52.310;17.016;2024-03-06T13:54:56;47.00;;;27.37;;
65071;SDS011;51663;52.310;17.016;2024-03-06T13:57:59;44.23;;;28.17;;
65071;SDS011;51663;52.310;17.016;2024-03-06T14:01:05;53.13;;;30.93;;
65071;SDS011;51663;52.310;17.016;2024-03-06T14:04:07;49.77;;;29.70;;
65071;SDS011;51663;52.310;17.016;2024-03-06T14:07:09;57.10;;;30.83;;
65071;SDS011;51663;52.310;17.016;2024-03-06T14:10:12;55.13;;;30.17;;
65071;SDS011;51663;52.310;17.016;2024-03-06T14:13:15;62.17;;;32.50;;
65071;SDS011;51663;52.310;17.016;2024-03-06T14:16:17;59.30;;;31.00;;
65071;SDS011;51663;52.310;17.016;2024-03-06T14:19:19;73.37;;;36.63;;
65071;SDS011;51663;52.310;17.016;2024-03-06T14:22:23;56.60;;;30.40;;
65071;SDS011;51663;52.310;17.016;2024-03-06T14:25:25;60.50;;;30.17;;
65071;SDS011;51663;52.310;17.016;2024-03-06T14:28:28;73.37;;;35.30;;
65071;SDS011;51663;52.310;17.016;2024-03-06T14:31:30;77.13;;;35.33;;
65071;SDS011;51663;52.310;17.016;2024-03-06T14:34:32;68.23;;;33.20;;
65071;SDS011;51663;52.310;17.016;2024-03-06T14:37:35;68.70;;;31.17;;
65071;SDS011;51663;52.310;17.016;2024-03-06T14:40:37;61.50;;;30.43;;
65071;SDS011;51663;52.310;17.016;2024-03-06T14:43:40;58.60;;;28.27;;
65071;SDS011;51663;52.310;17.016;2024-03-06T14:46:42;58.37;;;30.63;;
65071;SDS011;51663;52.310;17.016;2024-03-06T14:49:44;53.40;;;27.93;;
65071;SDS011;51663;52.310;17.016;2024-03-06T14:52:47;65.20;;;30.27;;
65071;SDS011;51663;52.310;17.016;2024-03-06T14:55:50;58.73;;;30.67;;
65071;SDS011;51663;52.310;17.016;2024-03-06T14:58:52;50.50;;;27.47;;
65071;SDS011;51663;52.310;17.016;2024-03-06T15:01:55;51.53;;;28.13;;
65071;SDS011;51663;52.310;17.016;2024-03-06T15:04:57;53.63;;;29.33;;
65071;SDS011;51663;52.310;17.016;2024-03-06T15:08:00;54.10;;;27.83;;
65071;SDS011;51663;52.310;17.016;2024-03-06T15:11:02;78.77;;;41.67;;
65071;SDS011;51663;52.310;17.016;2024-03-06T15:14:04;60.83;;;30.53;;
65071;SDS011;51663;52.310;17.016;2024-03-06T15:17:09;55.30;;;29.00;;
65071;SDS011;51663;52.310;17.016;2024-03-06T15:20:11;51.83;;;28.57;;
65071;SDS011;51663;52.310;17.016;2024-03-06T15:23:14;56.13;;;28.90;;
65071;SDS011;51663;52.310;17.016;2024-03-06T15:26:17;56.10;;;30.53;;
65071;SDS011;51663;52.310;17.016;2024-03-06T15:29:19;60.07;;;29.77;;
65071;SDS011;51663;52.310;17.016;2024-03-06T15:32:22;56.70;;;29.30;;
65071;SDS011;51663;52.310;17.016;2024-03-06T15:35:25;79.97;;;37.27;;
65071;SDS011;51663;52.310;17.016;2024-03-06T15:38:27;54.50;;;30.10;;
65071;SDS011;51663;52.310;17.016;2024-03-06T15:41:29;54.50;;;29.43;;
65071;SDS011;51663;52.310;17.016;2024-03-06T15:44:32;83.30;;;42.90;;
65071;SDS011;51663;52.310;17.016;2024-03-06T15:47:35;58.67;;;32.50;;
65071;SDS011;51663;52.310;17.016;2024-03-06T15:50:45;51.37;;;29.83;;
65071;SDS011;51663;52.310;17.016;2024-03-06T15:53:47;55.80;;;32.63;;
65071;SDS011;51663;52.310;17.016;2024-03-06T15:56:50;53.03;;;30.23;;
65071;SDS011;51663;52.310;17.016;2024-03-06T15:59:52;52.17;;;29.47;;
65071;SDS011;51663;52.310;17.016;2024-03-06T16:02:55;59.20;;;33.17;;
65071;SDS011;51663;52.310;17.016;2024-03-06T16:06:00;57.73;;;28.97;;
65071;SDS011;51663;52.310;17.016;2024-03-06T16:09:15;50.70;;;28.77;;
65071;SDS011;51663;52.310;17.016;2024-03-06T16:12:18;52.07;;;29.53;;
65071;SDS011;51663;52.310;17.016;2024-03-06T16:15:21;77.53;;;38.80;;
65071;SDS011;51663;52.310;17.016;2024-03-06T16:18:23;51.93;;;30.30;;
65071;SDS011;51663;52.310;17.016;2024-03-06T16:21:26;49.40;;;28.50;;
65071;SDS011;51663;52.310;17.016;2024-03-06T16:24:28;52.63;;;29.80;;
65071;SDS011;51663;52.310;17.016;2024-03-06T16:27:31;57.33;;;33.17;;
65071;SDS011;51663;52.310;17.016;2024-03-06T16:30:34;60.97;;;33.77;;
65071;SDS011;51663;52.310;17.016;2024-03-06T16:33:35;60.00;;;32.50;;
65071;SDS011;51663;52.310;17.016;2024-03-06T16:36:38;61.77;;;33.27;;
65071;SDS011;51663;52.310;17.016;2024-03-06T16:39:40;58.77;;;32.07;;
65071;SDS011;51663;52.310;17.016;2024-03-06T16:42:43;64.43;;;32.67;;
65071;SDS011;51663;52.310;17.016;2024-03-06T16:45:45;47.70;;;28.97;;
65071;SDS011;51663;52.310;17.016;2024-03-06T16:48:47;48.53;;;29.17;;
65071;SDS011;51663;52.310;17.016;2024-03-06T16:51:51;47.57;;;28.00;;
65071;SDS011;51663;52.310;17.016;2024-03-06T16:54:53;48.43;;;29.73;;
65071;SDS011;51663;52.310;17.016;2024-03-06T16:57:56;47.53;;;29.93;;
65071;SDS011;51663;52.310;17.016;2024-03-06T17:00:59;46.50;;;27.87;;
65071;SDS011;51663;52.310;17.016;2024-03-06T17:04:02;48.60;;;29.23;;
65071;SDS011;51663;52.310;17.016;2024-03-06T17:07:04;52.07;;;28.60;;
65071;SDS011;51663;52.310;17.016;2024-03-06T17:10:11;49.87;;;29.10;;
65071;SDS011;51663;52.310;17.016;2024-03-06T17:13:14;47.30;;;28.53;;
65071;SDS011;51663;52.310;17.016;2024-03-06T17:16:16;39.37;;;24.80;;
65071;SDS011;51663;52.310;17.016;2024-03-06T17:19:19;44.13;;;26.00;;
65071;SDS011;51663;52.310;17.016;2024-03-06T17:22:21;37.63;;;24.70;;
65071;SDS011;51663;52.310;17.016;2024-03-06T17:25:24;37.53;;;23.73;;
65071;SDS011;51663;52.310;17.016;2024-03-06T17:28:26;44.50;;;25.23;;
65071;SDS011;51663;52.310;17.016;2024-03-06T17:31:28;41.83;;;25.17;;
65071;SDS011;51663;52.310;17.016;2024-03-06T17:34:31;41.77;;;25.87;;
65071;SDS011;51663;52.310;17.016;2024-03-06T17:37:34;48.10;;;26.07;;
65071;SDS011;51663;52.310;17.016;2024-03-06T17:40:36;39.63;;;24.73;;
65071;SDS011;51663;52.310;17.016;2024-03-06T17:43:39;44.67;;;24.83;;
65071;SDS011;51663;52.310;17.016;2024-03-06T17:46:42;46.57;;;26.13;;
65071;SDS011;51663;52.310;17.016;2024-03-06T17:49:45;40.03;;;25.50;;